createdAt,value
2019-03-16T00:00:03.460Z,5.87
2019-03-16T00:01:08.233Z,10.50
2019-03-16T00:02:12.810Z,6.37
2019-03-16T00:03:17.296Z,8.40
2019-03-16T00:04:21.711Z,11.47
2019-03-16T00:05:26.093Z,7.47
2019-03-16T00:06:30.572Z,6.50
2019-03-16T00:07:35.085Z,5.47
2019-03-16T00:08:39.457Z,10.57
2019-03-16T00:09:43.900Z,5.87
2019-03-16T00:10:48.273Z,10.33
2019-03-16T00:11:52.743Z,8.10
2019-03-16T00:12:57.375Z,5.13
2019-03-16T00:14:01.745Z,5.13
2019-03-16T00:15:06.345Z,8.20
2019-03-16T00:16:10.772Z,7.80
2019-03-16T00:17:23.315Z,4.77
2019-03-16T00:18:21.452Z,5.07
2019-03-16T00:19:26.018Z,4.90
2019-03-16T00:20:33.523Z,8.80
2019-03-16T00:21:37.927Z,6.70
2019-03-16T00:22:42.333Z,5.90
2019-03-16T00:23:46.725Z,6.77
2019-03-16T00:24:51.217Z,5.10
2019-03-16T00:25:55.573Z,11.13
2019-03-16T00:27:00.108Z,8.10
2019-03-16T00:28:04.655Z,5.30
2019-03-16T00:29:11.358Z,5.27
2019-03-16T00:30:15.860Z,5.90
2019-03-16T00:31:20.509Z,6.13
2019-03-16T00:32:25.080Z,7.57
2019-03-16T00:33:29.655Z,7.93
2019-03-16T00:34:34.106Z,7.67
2019-03-16T00:35:38.464Z,7.67
2019-03-16T00:36:42.890Z,8.07
2019-03-16T00:37:47.300Z,4.17
2019-03-16T00:38:51.713Z,8.13
2019-03-16T00:39:56.291Z,8.77
2019-03-16T00:41:00.718Z,4.77
2019-03-16T00:42:05.314Z,5.13
2019-03-16T00:43:09.905Z,5.20
2019-03-16T00:44:14.322Z,5.77
2019-03-16T00:45:18.791Z,7.67
2019-03-16T00:46:23.117Z,9.80
2019-03-16T00:47:27.753Z,3.97
2019-03-16T00:48:32.615Z,6.50
2019-03-16T00:49:37.030Z,8.93
2019-03-16T00:50:41.619Z,7.93
2019-03-16T00:51:46.192Z,7.13
2019-03-16T00:52:50.585Z,6.60
2019-03-16T00:53:55.054Z,6.97
2019-03-16T00:54:59.533Z,5.20
2019-03-16T00:56:04.076Z,4.50
2019-03-16T00:57:08.698Z,6.37
2019-03-16T00:58:13.445Z,7.03
2019-03-16T00:59:17.965Z,7.77
2019-03-16T01:00:22.415Z,10.30
2019-03-16T01:01:26.905Z,12.67
2019-03-16T01:02:33.020Z,3.07
2019-03-16T01:03:37.577Z,7.43
2019-03-16T01:04:41.995Z,16.43
2019-03-16T01:05:46.363Z,7.97
2019-03-16T01:06:50.779Z,6.87
2019-03-16T01:07:55.280Z,6.17
2019-03-16T01:08:59.817Z,9.33
2019-03-16T01:10:04.425Z,7.90
2019-03-16T01:11:09.625Z,9.53
2019-03-16T01:12:14.056Z,7.50
2019-03-16T01:13:18.405Z,6.97
2019-03-16T01:14:22.826Z,7.27
2019-03-16T01:15:27.255Z,5.57
2019-03-16T01:16:31.694Z,9.97
2019-03-16T01:17:36.150Z,9.30
2019-03-16T01:18:40.661Z,8.23
2019-03-16T01:19:45.109Z,9.73
2019-03-16T01:20:49.553Z,9.80
2019-03-16T01:21:53.939Z,10.20
2019-03-16T01:22:58.346Z,6.37
2019-03-16T01:24:02.712Z,6.63
2019-03-16T01:25:07.216Z,7.63
2019-03-16T01:26:11.649Z,8.00
2019-03-16T01:27:16.072Z,7.53
2019-03-16T01:28:23.454Z,7.50
2019-03-16T01:29:28.124Z,7.87
2019-03-16T01:30:32.514Z,9.33
2019-03-16T01:31:36.988Z,8.93
2019-03-16T01:32:41.488Z,8.70
2019-03-16T01:33:45.873Z,4.13
2019-03-16T01:34:50.319Z,4.87
2019-03-16T01:35:54.784Z,5.80
2019-03-16T01:36:59.216Z,7.73
2019-03-16T01:38:03.624Z,7.23
2019-03-16T01:39:08.395Z,8.10
2019-03-16T01:40:12.867Z,4.97
2019-03-16T01:41:17.332Z,9.80
2019-03-16T01:42:21.920Z,11.00
2019-03-16T01:43:26.467Z,3.93
2019-03-16T01:44:30.910Z,7.67
2019-03-16T01:45:35.289Z,7.53
2019-03-16T01:46:39.734Z,10.13
2019-03-16T01:47:44.116Z,12.90
2019-03-16T01:48:48.635Z,5.30
2019-03-16T01:49:53.162Z,6.63
2019-03-16T01:50:57.717Z,6.33
2019-03-16T01:52:02.140Z,7.53
2019-03-16T01:53:06.485Z,10.30
2019-03-16T01:54:10.980Z,8.90
2019-03-16T01:55:15.427Z,9.07
2019-03-16T01:56:21.223Z,8.43
2019-03-16T01:57:25.820Z,8.70
2019-03-16T01:58:30.228Z,11.00
2019-03-16T01:59:34.609Z,7.23
2019-03-16T02:00:38.957Z,7.33
2019-03-16T02:01:43.353Z,10.80
2019-03-16T02:02:54.885Z,6.03
2019-03-16T02:03:53.780Z,8.20
2019-03-16T02:04:58.139Z,6.73
2019-03-16T02:06:02.576Z,6.37
2019-03-16T02:07:07.377Z,8.23
2019-03-16T02:08:11.805Z,5.83
2019-03-16T02:09:16.363Z,8.80
2019-03-16T02:10:20.745Z,3.93
2019-03-16T02:11:25.183Z,7.97
2019-03-16T02:12:30.391Z,7.63
2019-03-16T02:13:34.742Z,7.27
2019-03-16T02:14:39.169Z,6.93
2019-03-16T02:15:43.497Z,7.83
2019-03-16T02:16:47.876Z,11.07
2019-03-16T02:17:52.248Z,9.73
2019-03-16T02:18:56.718Z,8.50
2019-03-16T02:20:01.148Z,11.97
2019-03-16T02:21:05.657Z,9.23
2019-03-16T02:22:10.032Z,8.67
2019-03-16T02:23:14.404Z,7.03
2019-03-16T02:24:18.897Z,7.53
2019-03-16T02:25:23.267Z,5.93
2019-03-16T02:26:27.848Z,7.57
2019-03-16T02:27:32.372Z,7.47
2019-03-16T02:28:38.266Z,6.47
2019-03-16T02:29:42.779Z,6.97
2019-03-16T02:30:47.167Z,7.37
2019-03-16T02:31:51.664Z,10.90
2019-03-16T02:33:11.650Z,6.77
2019-03-16T02:34:02.100Z,9.80
2019-03-16T02:35:07.273Z,7.27
2019-03-16T02:36:12.351Z,7.30
2019-03-16T02:37:16.751Z,8.47
2019-03-16T02:38:21.275Z,8.47
2019-03-16T02:39:25.702Z,7.73
2019-03-16T02:40:30.434Z,8.83
2019-03-16T02:41:34.865Z,6.33
2019-03-16T02:42:39.256Z,4.43
2019-03-16T02:43:43.700Z,9.20
2019-03-16T02:44:48.117Z,5.13
2019-03-16T02:45:55.400Z,6.97
2019-03-16T02:46:59.860Z,9.37
2019-03-16T02:48:04.223Z,6.97
2019-03-16T02:49:08.625Z,4.77
2019-03-16T02:50:13.106Z,7.67
2019-03-16T02:51:17.435Z,5.47
2019-03-16T02:52:21.893Z,7.50
2019-03-16T02:53:26.294Z,8.43
2019-03-16T02:54:31.070Z,6.03
2019-03-16T02:55:35.709Z,4.50
2019-03-16T02:56:40.164Z,6.90
2019-03-16T02:57:44.590Z,5.13
2019-03-16T02:58:49.190Z,7.50
2019-03-16T02:59:53.623Z,6.77
2019-03-16T03:00:57.988Z,6.70
2019-03-16T03:02:02.554Z,7.40
2019-03-16T03:03:07.175Z,7.37
2019-03-16T03:04:11.737Z,7.27
2019-03-16T03:05:16.097Z,9.43
2019-03-16T03:06:20.503Z,8.10
2019-03-16T03:07:24.953Z,10.60
2019-03-16T03:08:29.276Z,8.97
2019-03-16T03:09:33.770Z,7.53
2019-03-16T03:10:38.210Z,7.43
2019-03-16T03:11:42.658Z,5.30
2019-03-16T03:12:46.991Z,5.70
2019-03-16T03:13:51.394Z,5.30
2019-03-16T03:14:55.780Z,9.43
2019-03-16T03:16:00.548Z,4.37
2019-03-16T03:17:05.040Z,6.27
2019-03-16T03:18:09.416Z,10.03
2019-03-16T03:19:13.843Z,11.00
2019-03-16T03:20:18.181Z,7.47
2019-03-16T03:21:22.517Z,7.07
2019-03-16T03:22:26.909Z,8.07
2019-03-16T03:23:31.389Z,7.00
2019-03-16T03:24:36.239Z,6.40
2019-03-16T03:25:40.864Z,9.17
2019-03-16T03:26:45.296Z,9.23
2019-03-16T03:27:49.725Z,4.90
2019-03-16T03:28:54.149Z,10.70
2019-03-16T03:29:58.553Z,8.17
2019-03-16T03:31:03.085Z,9.30
2019-03-16T03:32:07.596Z,14.97
2019-03-16T03:33:12.028Z,8.77
2019-03-16T03:34:16.487Z,7.50
2019-03-16T03:35:20.929Z,6.10
2019-03-16T03:36:25.432Z,10.20
2019-03-16T03:37:29.755Z,10.43
2019-03-16T03:38:34.562Z,13.90
2019-03-16T03:39:39.074Z,8.67
2019-03-16T03:40:43.521Z,8.43
2019-03-16T03:41:47.916Z,7.20
2019-03-16T03:42:52.270Z,10.87
2019-03-16T03:43:56.736Z,5.47
2019-03-16T03:45:01.065Z,11.97
2019-03-16T03:46:05.507Z,10.77
2019-03-16T03:47:10.271Z,8.83
2019-03-16T03:48:14.749Z,5.27
2019-03-16T03:49:19.187Z,10.57
2019-03-16T03:50:23.560Z,11.43
2019-03-16T03:51:28.053Z,10.83
2019-03-16T03:52:32.493Z,8.50
2019-03-16T03:53:40.973Z,6.27
2019-03-16T03:54:42.960Z,11.93
2019-03-16T03:55:47.436Z,11.80
2019-03-16T03:56:51.864Z,8.27
2019-03-16T03:57:56.181Z,7.33
2019-03-16T03:59:00.645Z,13.40
2019-03-16T04:00:05.923Z,8.80
2019-03-16T04:01:10.837Z,7.00
2019-03-16T04:02:15.208Z,9.87
2019-03-16T04:03:19.581Z,5.60
2019-03-16T04:04:24.000Z,10.93
2019-03-16T04:05:28.373Z,6.67
2019-03-16T04:06:32.893Z,8.50
2019-03-16T04:07:37.760Z,7.47
2019-03-16T04:08:42.342Z,10.00
2019-03-16T04:09:46.670Z,13.60
2019-03-16T04:10:51.009Z,8.23
2019-03-16T04:11:55.446Z,6.73
2019-03-16T04:12:59.985Z,7.73
2019-03-16T04:14:05.955Z,8.37
2019-03-16T04:15:10.838Z,3.60
2019-03-16T04:16:15.304Z,6.23
2019-03-16T04:17:19.658Z,5.10
2019-03-16T04:18:24.136Z,4.90
2019-03-16T04:19:28.478Z,6.97
2019-03-16T04:20:33.058Z,4.97
2019-03-16T04:21:37.610Z,6.33
2019-03-16T04:22:42.061Z,5.30
2019-03-16T04:23:46.486Z,11.37
2019-03-16T04:24:50.939Z,6.93
2019-03-16T04:25:55.374Z,5.03
2019-03-16T04:27:14.527Z,6.83
2019-03-16T04:28:05.802Z,4.40
2019-03-16T04:29:10.389Z,3.07
2019-03-16T04:30:14.926Z,8.40
2019-03-16T04:31:19.318Z,4.37
2019-03-16T04:32:23.773Z,7.60
2019-03-16T04:33:28.251Z,4.00
2019-03-16T04:34:32.806Z,5.57
2019-03-16T04:35:37.148Z,5.27
2019-03-16T04:36:41.460Z,6.20
2019-03-16T04:37:45.977Z,4.60
2019-03-16T04:38:50.361Z,6.90
2019-03-16T04:39:54.799Z,6.40
2019-03-16T04:40:59.284Z,9.10
2019-03-16T04:42:03.995Z,3.70
2019-03-16T04:43:08.784Z,6.90
2019-03-16T04:44:13.290Z,5.43
2019-03-16T04:45:17.722Z,5.83
2019-03-16T04:46:22.139Z,5.33
2019-03-16T04:47:26.497Z,9.03
2019-03-16T04:48:31.056Z,4.93
2019-03-16T04:49:35.511Z,4.63
2019-03-16T04:50:42.364Z,3.10
2019-03-16T04:51:46.732Z,5.00
2019-03-16T04:52:51.327Z,6.33
2019-03-16T04:53:55.822Z,8.67
2019-03-16T04:55:00.459Z,3.80
2019-03-16T04:56:05.614Z,5.17
2019-03-16T04:57:10.254Z,5.73
2019-03-16T04:58:14.658Z,8.63
2019-03-16T04:59:19.033Z,6.00
2019-03-16T05:00:23.435Z,7.17
2019-03-16T05:01:27.765Z,2.50
2019-03-16T05:02:32.092Z,7.03
2019-03-16T05:03:36.480Z,2.50
2019-03-16T05:04:42.617Z,1.97
2019-03-16T05:05:46.920Z,10.03
2019-03-16T05:06:51.276Z,3.07
2019-03-16T05:07:55.687Z,3.83
2019-03-16T05:09:00.060Z,3.30
2019-03-16T05:10:07.238Z,4.47
2019-03-16T05:11:11.093Z,4.60
2019-03-16T05:12:15.497Z,3.87
2019-03-16T05:13:19.828Z,6.50
2019-03-16T05:14:24.169Z,2.70
2019-03-16T05:15:28.537Z,6.20
2019-03-16T05:16:32.994Z,6.87
2019-03-16T05:17:37.434Z,4.30
2019-03-16T05:18:41.866Z,6.13
2019-03-16T05:19:46.243Z,6.97
2019-03-16T05:20:50.645Z,8.93
2019-03-16T05:21:55.088Z,3.90
2019-03-16T05:22:59.525Z,4.57
2019-03-16T05:24:04.140Z,6.03
2019-03-16T05:25:09.033Z,4.63
2019-03-16T05:26:13.572Z,3.67
2019-03-16T05:27:18.033Z,5.87
2019-03-16T05:28:22.460Z,6.77
2019-03-16T05:29:26.828Z,5.57
2019-03-16T05:30:31.168Z,3.83
2019-03-16T05:31:35.528Z,4.47
2019-03-16T05:32:39.968Z,4.63
2019-03-16T05:33:44.371Z,5.37
2019-03-16T05:34:56.512Z,6.23
2019-03-16T05:35:55.006Z,4.70
2019-03-16T05:36:59.453Z,5.20
2019-03-16T05:38:06.916Z,4.90
2019-03-16T05:39:11.526Z,8.00
2019-03-16T05:40:15.956Z,7.27
2019-03-16T05:41:20.317Z,4.17
2019-03-16T05:42:24.756Z,6.60
2019-03-16T05:43:29.096Z,7.87
2019-03-16T05:44:33.525Z,7.53
2019-03-16T05:45:38.041Z,4.70
2019-03-16T05:46:42.386Z,9.10
2019-03-16T05:47:46.846Z,5.70
2019-03-16T05:48:51.206Z,5.60
2019-03-16T05:49:55.589Z,6.77
2019-03-16T05:50:59.972Z,4.80
2019-03-16T05:52:04.440Z,5.33
2019-03-16T05:53:08.816Z,6.37
2019-03-16T05:54:13.272Z,4.77
2019-03-16T05:55:17.667Z,7.57
2019-03-16T05:56:22.016Z,8.30
2019-03-16T05:57:26.460Z,6.13
2019-03-16T05:58:30.877Z,7.73
2019-03-16T05:59:35.224Z,5.53
2019-03-16T06:00:39.751Z,5.60
2019-03-16T06:01:44.133Z,5.53
2019-03-16T06:02:48.524Z,6.53
2019-03-16T06:03:53.011Z,8.13
2019-03-16T06:05:09.893Z,10.03
2019-03-16T06:06:05.393Z,7.13
2019-03-16T06:07:10.255Z,5.47
2019-03-16T06:08:14.689Z,7.07
2019-03-16T06:09:19.052Z,6.30
2019-03-16T06:10:23.585Z,5.63
2019-03-16T06:11:28.090Z,8.90
2019-03-16T06:12:32.531Z,7.57
2019-03-16T06:13:36.968Z,5.57
2019-03-16T06:14:41.621Z,6.87
2019-03-16T06:15:46.025Z,8.67
2019-03-16T06:16:50.456Z,7.37
2019-03-16T06:17:54.920Z,6.87
2019-03-16T06:18:59.548Z,8.70
2019-03-16T06:20:06.105Z,11.57
2019-03-16T06:21:10.617Z,9.83
2019-03-16T06:22:15.087Z,8.77
2019-03-16T06:23:19.485Z,8.37
2019-03-16T06:24:23.927Z,9.43
2019-03-16T06:25:28.314Z,8.00
2019-03-16T06:26:32.697Z,7.23
2019-03-16T06:27:37.096Z,5.90
2019-03-16T06:28:41.526Z,6.20
2019-03-16T06:29:45.980Z,6.57
2019-03-16T06:30:50.326Z,6.37
2019-03-16T06:31:54.776Z,7.30
2019-03-16T06:32:59.206Z,8.50
2019-03-16T06:34:03.677Z,3.97
2019-03-16T06:35:08.097Z,6.70
2019-03-16T06:36:12.660Z,6.73
2019-03-16T06:37:17.038Z,9.17
2019-03-16T06:38:21.465Z,5.60
2019-03-16T06:39:25.852Z,10.47
2019-03-16T06:40:30.304Z,4.73
2019-03-16T06:41:34.681Z,5.87
2019-03-16T06:42:39.535Z,9.37
2019-03-16T06:43:44.264Z,9.33
2019-03-16T06:44:48.858Z,10.27
2019-03-16T06:45:54.566Z,8.47
2019-03-16T06:46:59.354Z,11.83
2019-03-16T06:48:03.922Z,6.63
2019-03-16T06:49:08.323Z,8.07
2019-03-16T06:50:12.741Z,4.53
2019-03-16T06:51:17.100Z,7.60
2019-03-16T06:52:21.466Z,6.10
2019-03-16T06:53:25.827Z,8.43
2019-03-16T06:54:30.259Z,7.30
2019-03-16T06:55:34.751Z,7.63
2019-03-16T06:56:44.489Z,5.90
2019-03-16T06:57:49.346Z,5.57
2019-03-16T06:58:53.856Z,5.70
2019-03-16T06:59:58.708Z,8.87
2019-03-16T07:01:03.029Z,5.27
2019-03-16T07:02:08.683Z,6.93
2019-03-16T07:03:13.119Z,6.90
2019-03-16T07:04:17.554Z,12.17
2019-03-16T07:05:23.685Z,7.67
2019-03-16T07:06:28.361Z,8.33
2019-03-16T07:07:32.820Z,8.20
2019-03-16T07:08:37.581Z,11.03
2019-03-16T07:09:41.984Z,7.30
2019-03-16T07:10:46.546Z,13.03
2019-03-16T07:11:51.023Z,7.10
2019-03-16T07:12:55.479Z,12.03
2019-03-16T07:13:59.910Z,9.33
2019-03-16T07:15:04.566Z,9.60
2019-03-16T07:16:09.553Z,8.73
2019-03-16T07:17:14.043Z,9.47
2019-03-16T07:18:18.504Z,7.87
2019-03-16T07:19:23.097Z,6.07
2019-03-16T07:20:27.513Z,11.97
2019-03-16T07:21:31.997Z,8.90
2019-03-16T07:22:36.665Z,9.90
2019-03-16T07:23:41.106Z,5.60
2019-03-16T07:24:45.524Z,12.17
2019-03-16T07:25:50.011Z,7.17
2019-03-16T07:26:54.403Z,7.30
2019-03-16T07:27:58.874Z,10.17
2019-03-16T07:29:03.297Z,6.63
2019-03-16T07:30:08.091Z,9.47
2019-03-16T07:31:12.732Z,7.70
2019-03-16T07:32:17.131Z,10.10
2019-03-16T07:33:21.536Z,13.00
2019-03-16T07:34:29.905Z,9.30
2019-03-16T07:35:34.504Z,8.10
2019-03-16T07:36:39.399Z,9.67
2019-03-16T07:37:43.910Z,14.13
2019-03-16T07:38:49.010Z,10.43
2019-03-16T07:39:53.576Z,13.70
2019-03-16T07:40:58.125Z,11.00
2019-03-16T07:42:02.660Z,12.20
2019-03-16T07:43:07.062Z,10.77
2019-03-16T07:44:11.526Z,11.77
2019-03-16T07:45:16.713Z,10.13
2019-03-16T07:46:21.116Z,9.33
2019-03-16T07:47:26.414Z,9.67
2019-03-16T07:48:30.766Z,9.77
2019-03-16T07:49:35.187Z,13.00
2019-03-16T07:50:40.028Z,10.63
2019-03-16T07:51:44.526Z,11.93
2019-03-16T07:52:49.029Z,12.90
2019-03-16T07:53:53.580Z,12.00
2019-03-16T07:54:58.316Z,12.50
2019-03-16T07:56:02.700Z,12.10
2019-03-16T07:57:07.218Z,10.43
2019-03-16T07:58:11.832Z,8.97
2019-03-16T07:59:16.572Z,11.20
2019-03-16T08:00:21.233Z,13.80
2019-03-16T08:01:25.804Z,11.43
2019-03-16T08:02:30.265Z,11.37
2019-03-16T08:03:34.840Z,17.17
2019-03-16T08:04:43.414Z,11.30
2019-03-16T08:05:46.997Z,11.57
2019-03-16T08:06:51.516Z,13.67
2019-03-16T08:07:55.964Z,14.83
2019-03-16T08:09:00.344Z,12.13
2019-03-16T08:10:05.034Z,14.00
2019-03-16T08:11:09.549Z,14.63
2019-03-16T08:12:14.189Z,15.47
2019-03-16T08:13:18.655Z,13.03
2019-03-16T08:14:23.155Z,20.67
2019-03-16T08:15:28.241Z,9.90
2019-03-16T08:16:33.379Z,16.37
2019-03-16T08:17:39.417Z,14.87
2019-03-16T08:18:43.892Z,15.33
2019-03-16T08:19:48.938Z,13.87
2019-03-16T08:20:53.813Z,13.10
2019-03-16T08:21:58.325Z,13.53
2019-03-16T08:23:03.087Z,14.27
2019-03-16T08:24:10.807Z,15.70
2019-03-16T08:25:15.323Z,13.27
2019-03-16T08:26:20.151Z,14.23
2019-03-16T08:27:24.639Z,13.70
2019-03-16T08:28:29.147Z,11.13
2019-03-16T08:29:33.812Z,13.30
2019-03-16T08:30:38.435Z,13.53
2019-03-16T08:31:43.089Z,12.77
2019-03-16T08:32:47.698Z,11.13
2019-03-16T08:33:52.211Z,11.73
2019-03-16T08:35:00.152Z,13.00
2019-03-16T08:36:03.262Z,14.10
2019-03-16T08:37:07.777Z,10.83
2019-03-16T08:38:13.467Z,11.97
2019-03-16T08:39:18.285Z,9.50
2019-03-16T08:40:22.673Z,8.97
2019-03-16T08:41:27.259Z,8.90
2019-03-16T08:42:31.683Z,11.80
2019-03-16T08:43:36.108Z,11.50
2019-03-16T08:44:43.671Z,8.40
2019-03-16T08:45:48.255Z,9.00
2019-03-16T08:46:52.666Z,10.33
2019-03-16T08:47:57.150Z,7.77
2019-03-16T08:49:01.579Z,9.47
2019-03-16T08:50:06.432Z,9.90
2019-03-16T08:51:10.916Z,10.60
2019-03-16T08:52:15.504Z,10.60
2019-03-16T08:53:22.759Z,9.87
2019-03-16T08:54:26.329Z,9.77
2019-03-16T08:55:30.765Z,10.10
2019-03-16T08:56:35.353Z,9.80
2019-03-16T08:57:39.909Z,9.57
2019-03-16T08:58:44.348Z,8.90
2019-03-16T08:59:48.837Z,8.20
2019-03-16T09:00:53.206Z,7.57
2019-03-16T09:01:57.595Z,9.40
2019-03-16T09:03:02.141Z,9.10
2019-03-16T09:04:06.527Z,10.80
2019-03-16T09:05:11.232Z,10.67
2019-03-16T09:06:15.695Z,11.60
2019-03-16T09:07:20.207Z,9.73
2019-03-16T09:08:24.681Z,12.83
2019-03-16T09:09:29.290Z,9.70
2019-03-16T09:10:33.918Z,9.73
2019-03-16T09:11:38.346Z,9.43
2019-03-16T09:12:55.039Z,8.87
2019-03-16T09:13:52.095Z,9.60
2019-03-16T09:14:56.450Z,9.63
2019-03-16T09:16:00.978Z,10.03
2019-03-16T09:17:05.384Z,8.70
2019-03-16T09:18:11.854Z,10.23
2019-03-16T09:19:16.410Z,7.63
2019-03-16T09:20:20.742Z,9.40
2019-03-16T09:21:25.219Z,9.30
2019-03-16T09:22:32.742Z,7.67
2019-03-16T09:23:37.150Z,9.03
2019-03-16T09:24:42.788Z,8.23
2019-03-16T09:25:47.307Z,8.80
2019-03-16T09:26:51.713Z,7.10
2019-03-16T09:27:56.136Z,11.33
2019-03-16T09:29:00.746Z,10.63
2019-03-16T09:30:07.438Z,9.73
2019-03-16T09:31:15.710Z,5.47
2019-03-16T09:32:21.209Z,5.97
2019-03-16T09:33:25.997Z,5.43
2019-03-16T09:34:30.708Z,6.22
2019-03-16T09:35:35.081Z,6.42
2019-03-16T09:36:39.670Z,6.08
2019-03-16T09:37:44.147Z,6.77
2019-03-16T09:38:48.748Z,5.17
2019-03-16T09:39:53.302Z,6.28
2019-03-16T09:40:57.722Z,4.45
2019-03-16T09:42:02.134Z,4.10
2019-03-16T09:43:06.516Z,3.73
2019-03-16T09:44:14.018Z,3.80
2019-03-16T09:45:18.615Z,3.65
2019-03-16T09:46:23.015Z,2.67
2019-03-16T09:47:27.531Z,3.27
2019-03-16T09:48:32.026Z,3.15
2019-03-16T09:49:36.504Z,4.08
2019-03-16T09:50:43.346Z,2.50
2019-03-16T09:51:47.777Z,2.50
2019-03-16T09:52:52.311Z,3.98
2019-03-16T09:53:56.781Z,3.83
2019-03-16T09:55:01.269Z,2.77
2019-03-16T09:56:06.020Z,1.98
2019-03-16T09:57:10.403Z,2.30
2019-03-16T09:58:30.446Z,4.08
2019-03-16T09:59:24.155Z,3.90
2019-03-16T10:00:28.718Z,5.90
2019-03-16T10:01:33.171Z,3.30
2019-03-16T10:02:37.614Z,2.55
2019-03-16T10:03:42.108Z,1.77
2019-03-16T10:04:46.694Z,4.10
2019-03-16T10:05:51.253Z,1.60
2019-03-16T10:06:55.610Z,2.00
2019-03-16T10:08:00.075Z,2.58
2019-03-16T10:09:06.993Z,3.52
2019-03-16T10:10:14.233Z,5.95
2019-03-16T10:11:19.237Z,4.22
2019-03-16T10:12:23.700Z,4.05
2019-03-16T10:13:28.059Z,1.65
2019-03-16T10:14:32.615Z,3.40
2019-03-16T10:15:37.081Z,3.55
2019-03-16T10:16:44.266Z,3.85
2019-03-16T10:17:48.717Z,2.72
2019-03-16T10:18:53.158Z,3.55
2019-03-16T10:19:57.617Z,3.27
2019-03-16T10:21:02.161Z,7.30
2019-03-16T10:22:06.609Z,3.52
2019-03-16T10:23:12.061Z,4.85
2019-03-16T10:24:16.576Z,7.08
2019-03-16T10:25:21.119Z,2.00
2019-03-16T10:26:25.535Z,2.08
2019-03-16T10:27:30.113Z,2.87
2019-03-16T10:28:43.258Z,2.87
2019-03-16T10:29:40.766Z,3.08
2019-03-16T10:30:45.500Z,3.22
2019-03-16T10:31:50.043Z,5.05
2019-03-16T10:32:54.466Z,2.20
2019-03-16T10:33:58.913Z,3.95
2019-03-16T10:35:03.429Z,5.10
2019-03-16T10:36:08.121Z,2.87
2019-03-16T10:37:12.838Z,3.08
2019-03-16T10:38:17.341Z,4.37
2019-03-16T10:39:21.696Z,4.10
2019-03-16T10:40:26.175Z,3.58
2019-03-16T10:41:30.626Z,2.80
2019-03-16T10:42:35.180Z,3.65
2019-03-16T10:43:39.614Z,2.33
2019-03-16T10:44:44.373Z,3.85
2019-03-16T10:45:48.792Z,4.05
2019-03-16T10:46:53.255Z,2.00
2019-03-16T10:47:57.780Z,3.25
2019-03-16T10:49:02.356Z,2.85
2019-03-16T10:50:07.640Z,4.62
2019-03-16T10:51:12.059Z,2.65
2019-03-16T10:52:17.278Z,3.55
2019-03-16T10:53:21.737Z,4.80
2019-03-16T10:54:26.269Z,2.67
2019-03-16T10:55:30.871Z,3.47
2019-03-16T10:56:35.345Z,3.80
2019-03-16T10:57:39.748Z,4.00
2019-03-16T10:58:56.197Z,3.72
2019-03-16T10:59:50.506Z,5.35
2019-03-16T11:00:54.902Z,3.35
2019-03-16T11:01:59.386Z,2.65
2019-03-16T11:03:03.848Z,6.45
2019-03-16T11:04:08.360Z,4.00
2019-03-16T11:05:13.070Z,5.20
2019-03-16T11:06:21.281Z,2.52
2019-03-16T11:07:25.861Z,2.40
2019-03-16T11:08:30.286Z,1.97
2019-03-16T11:09:34.725Z,4.35
2019-03-16T11:10:39.235Z,1.95
2019-03-16T11:11:43.697Z,2.52
2019-03-16T11:12:48.138Z,5.12
2019-03-16T11:13:52.549Z,3.83
2019-03-16T11:14:57.159Z,4.80
2019-03-16T11:16:01.602Z,2.40
2019-03-16T11:17:06.322Z,3.62
2019-03-16T11:18:10.847Z,3.53
2019-03-16T11:19:15.318Z,3.37
2019-03-16T11:20:19.825Z,4.08
2019-03-16T11:21:24.236Z,1.97
2019-03-16T11:22:28.719Z,5.97
2019-03-16T11:23:33.507Z,3.08
2019-03-16T11:24:37.920Z,1.60
2019-03-16T11:25:42.445Z,2.60
2019-03-16T11:26:46.929Z,6.92
2019-03-16T11:27:51.302Z,3.72
2019-03-16T11:29:04.553Z,1.90
2019-03-16T11:30:04.045Z,2.62
2019-03-16T11:31:12.863Z,8.88
2019-03-16T11:32:23.203Z,4.20
2019-03-16T11:33:29.475Z,2.17
2019-03-16T11:34:34.615Z,2.30
2019-03-16T11:35:40.061Z,1.80
2019-03-16T11:36:45.876Z,5.45
2019-03-16T11:37:51.299Z,1.77
2019-03-16T11:38:57.472Z,2.45
2019-03-16T11:40:02.638Z,4.53
2019-03-16T11:41:07.175Z,3.52
2019-03-16T11:42:11.890Z,3.40
2019-03-16T11:43:16.302Z,2.75
2019-03-16T11:44:20.749Z,4.35
2019-03-16T11:45:25.260Z,5.08
2019-03-16T11:46:29.775Z,3.15
2019-03-16T11:47:34.235Z,2.22
2019-03-16T11:48:38.786Z,4.10
2019-03-16T11:49:43.234Z,7.00
2019-03-16T11:50:48.980Z,4.47
2019-03-16T11:51:53.564Z,3.95
2019-03-16T11:52:58.017Z,1.92
2019-03-16T11:54:02.549Z,3.67
2019-03-16T11:55:07.038Z,2.05
2019-03-16T11:56:17.940Z,5.15
2019-03-16T11:57:18.181Z,3.47
2019-03-16T11:58:22.618Z,3.42
2019-03-16T11:59:27.071Z,2.80
2019-03-16T12:00:31.573Z,2.65
2019-03-16T12:01:36.020Z,2.85
2019-03-16T12:02:40.897Z,1.57
2019-03-16T12:03:45.319Z,2.55
2019-03-16T12:04:49.791Z,4.12
2019-03-16T12:05:54.448Z,2.95
2019-03-16T12:06:58.924Z,3.87
2019-03-16T12:08:03.486Z,1.77
2019-03-16T12:09:08.551Z,3.02
2019-03-16T12:10:13.426Z,1.50
2019-03-16T12:11:17.957Z,1.60
2019-03-16T12:12:22.514Z,1.62
2019-03-16T12:13:27.098Z,1.75
2019-03-16T12:14:31.590Z,2.02
2019-03-16T12:15:36.071Z,2.50
2019-03-16T12:16:40.567Z,2.90
2019-03-16T12:17:45.102Z,2.17
2019-03-16T12:18:49.686Z,1.98
2019-03-16T12:19:54.877Z,2.00
2019-03-16T12:20:59.412Z,1.60
2019-03-16T12:22:04.552Z,2.75
2019-03-16T12:23:09.212Z,2.17
2019-03-16T12:24:13.802Z,3.00
2019-03-16T12:25:18.442Z,2.33
2019-03-16T12:26:26.026Z,2.27
2019-03-16T12:27:30.544Z,2.62
2019-03-16T12:28:35.100Z,1.67
2019-03-16T12:29:39.825Z,1.12
2019-03-16T12:30:47.318Z,2.35
2019-03-16T12:31:51.691Z,2.85
2019-03-16T12:32:56.225Z,3.00
2019-03-16T12:34:00.819Z,1.87
2019-03-16T12:35:06.433Z,2.92
2019-03-16T12:36:10.996Z,2.30
2019-03-16T12:37:16.450Z,2.85
2019-03-16T12:38:20.825Z,2.15
2019-03-16T12:39:25.263Z,1.77
2019-03-16T12:40:29.758Z,2.47
2019-03-16T12:41:34.191Z,3.47
2019-03-16T12:42:38.761Z,2.42
2019-03-16T12:43:43.265Z,4.53
2019-03-16T12:44:47.806Z,1.60
2019-03-16T12:45:52.361Z,1.57
2019-03-16T12:46:56.827Z,3.52
2019-03-16T12:48:01.280Z,1.92
2019-03-16T12:49:05.684Z,1.32
2019-03-16T12:50:10.380Z,4.40
2019-03-16T12:51:14.950Z,2.83
2019-03-16T12:52:19.557Z,3.17
2019-03-16T12:53:24.409Z,3.55
2019-03-16T12:54:28.810Z,3.37
2019-03-16T12:55:33.283Z,3.27
2019-03-16T12:56:39.074Z,3.02
2019-03-16T12:57:48.044Z,2.02
2019-03-16T12:58:52.819Z,1.52
2019-03-16T12:59:57.252Z,2.37
2019-03-16T13:01:01.868Z,1.32
2019-03-16T13:02:06.302Z,7.25
2019-03-16T13:03:10.716Z,1.65
2019-03-16T13:04:15.497Z,1.95
2019-03-16T13:05:20.488Z,2.10
2019-03-16T13:06:24.902Z,2.62
2019-03-16T13:07:29.545Z,3.60
2019-03-16T13:08:34.100Z,1.90
2019-03-16T13:09:38.665Z,3.12
2019-03-16T13:10:44.438Z,2.50
2019-03-16T13:11:48.877Z,4.12
2019-03-16T13:12:53.346Z,2.08
2019-03-16T13:13:57.802Z,3.02
2019-03-16T13:15:02.501Z,2.92
2019-03-16T13:16:07.115Z,1.55
2019-03-16T13:17:11.621Z,1.98
2019-03-16T13:18:18.388Z,2.15
2019-03-16T13:19:23.211Z,2.50
2019-03-16T13:20:27.605Z,2.15
2019-03-16T13:21:32.013Z,2.77
2019-03-16T13:22:36.516Z,1.15
2019-03-16T13:23:41.000Z,2.10
2019-03-16T13:24:46.785Z,2.67
2019-03-16T13:25:51.377Z,3.72
2019-03-16T13:26:55.946Z,1.82
2019-03-16T13:28:00.535Z,1.47
2019-03-16T13:29:05.266Z,4.62
2019-03-16T13:30:11.061Z,3.33
2019-03-16T13:31:15.785Z,3.00
2019-03-16T13:32:20.322Z,2.00
2019-03-16T13:33:24.695Z,2.50
2019-03-16T13:34:29.264Z,1.52
2019-03-16T13:35:33.665Z,2.98
2019-03-16T13:36:38.093Z,5.05
2019-03-16T13:37:42.689Z,2.67
2019-03-16T13:38:49.487Z,1.85
2019-03-16T13:39:53.959Z,2.27
2019-03-16T13:40:58.403Z,1.27
2019-03-16T13:42:02.792Z,3.12
2019-03-16T13:43:07.347Z,2.62
2019-03-16T13:44:11.857Z,1.80
2019-03-16T13:45:16.561Z,2.47
2019-03-16T13:46:21.060Z,2.65
2019-03-16T13:47:25.537Z,1.82
2019-03-16T13:48:30.115Z,2.77
2019-03-16T13:49:34.603Z,2.60
2019-03-16T13:50:39.059Z,3.12
2019-03-16T13:51:43.869Z,1.87
2019-03-16T13:52:48.561Z,1.98
2019-03-16T13:53:53.064Z,2.17
2019-03-16T13:54:57.523Z,2.47
2019-03-16T13:56:02.189Z,3.47
2019-03-16T13:57:06.892Z,1.55
2019-03-16T13:58:11.645Z,2.22
2019-03-16T13:59:16.142Z,2.00
2019-03-16T14:00:21.035Z,3.87
2019-03-16T14:01:33.118Z,2.50
2019-03-16T14:02:37.568Z,2.70
2019-03-16T14:03:42.313Z,2.00
2019-03-16T14:04:47.281Z,1.57
2019-03-16T14:05:51.806Z,1.75
2019-03-16T14:06:56.298Z,2.60
2019-03-16T14:08:02.319Z,1.85
2019-03-16T14:09:08.260Z,1.85
2019-03-16T14:10:15.274Z,2.67
2019-03-16T14:11:19.916Z,2.33
2019-03-16T14:12:24.384Z,1.35
2019-03-16T14:13:29.113Z,2.70
2019-03-16T14:14:33.659Z,3.25
2019-03-16T14:15:38.305Z,4.12
2019-03-16T14:16:45.330Z,3.00